| Date | Time | Temp. (oF) | Dew Point (oF) | Rel. Hum. (%) | Press. (in.) | Wind Dir. | Wind Speed (mph) | Hourly Rainfall (in.) |
|
|---|---|---|---|---|---|---|---|---|---|
| 1 | 10/25 | 00:00 | 69 | 62 | 79 | 29.66 | S | 7 | 0.00 |
| 2 | 10/24 | 23:00 | 70 | 62 | 78 | 29.67 | S | 8 | 0.00 |
| 3 | 10/24 | 22:00 | 71 | 63 | 76 | 29.69 | S | 6 | 0.00 |
| 4 | 10/24 | 21:00 | 72 | 62 | 72 | 29.69 | S | 6 | 0.00 |
| 5 | 10/24 | 20:00 | 72 | 62 | 72 | 29.69 | S | 4 | 0.00 |
| 6 | 10/24 | 19:00 | 74 | 62 | 68 | 29.70 | SSE | 3 | 0.00 |
| 7 | 10/24 | 18:00 | 77 | 62 | 61 | 29.67 | S | 4 | 0.00 |
| 8 | 10/24 | 17:00 | 79 | 62 | 58 | 29.65 | S | 4 | 0.00 |
| 9 | 10/24 | 16:00 | 82 | 61 | 51 | 29.64 | SSE | 4 | 0.00 |
| 10 | 10/24 | 15:00 | 82 | 60 | 48 | 29.67 | S | 9 | 0.00 |
| 11 | 10/24 | 14:00 | 81 | 61 | 51 | 29.71 | S | 7 | 0.00 |
| 12 | 10/24 | 13:00 | 78 | 62 | 60 | 29.73 | SSE | 6 | 0.00 |
| 13 | 10/24 | 12:00 | 74 | 63 | 69 | 29.76 | SSW | 6 | 0.00 |
| 14 | 10/24 | 11:00 | 69 | 63 | 82 | 29.77 | S | 3 | 0.00 |
| 15 | 10/24 | 10:00 | 63 | 62 | 99 | 29.78 | SE | 1 | 0.00 |
| 16 | 10/24 | 09:00 | 59 | 58 | 99 | 29.79 | SE | 0 | 0.00 |
| 17 | 10/24 | 08:00 | 58 | 56 | 96 | 29.78 | NW | 0 | 0.00 |
| 18 | 10/24 | 07:00 | 59 | 58 | 97 | 29.77 | NW | 0 | 0.00 |
| 19 | 10/24 | 06:00 | 60 | 58 | 95 | 29.76 | NNW | 0 | 0.00 |
| 20 | 10/24 | 05:00 | 61 | 59 | 96 | 29.76 | NNW | 0 | 0.00 |
| 21 | 10/24 | 04:00 | 63 | 61 | 95 | 29.76 | N | 0 | 0.00 |
| 22 | 10/24 | 03:00 | 65 | 62 | 92 | 29.77 | N | 0 | 0.00 |
| 23 | 10/24 | 02:00 | 66 | 62 | 90 | 29.78 | NNW | 4 | 0.00 |
| 24 | 10/24 | 01:00 | 67 | 64 | 92 | 29.76 | S | 7 | 0.00 |